Time;durP1;ratioP1;P1;durP2;ratioP2;P2;SDS_P1;SDS_P2;PMS_P1;PMS_P2;Temp;Humidity;BMP_temperature;BMP_pressure;BME280_temperature;BME280_humidity;BME280_pressure;Samples;Min_cycle;Max_cycle;Signal;HPM_P1;HPM_P2
2022/12/14 00:01:09;;;;;;;18.57;10.03;;;2.20;64.20;;;;;;5103043;28;20032;-67
2022/12/14 00:03:36;;;;;;;18.67;10.30;;;2.20;64.20;;;;;;5102912;28;20412;-67
2022/12/14 00:06:29;;;;;;;18.63;10.07;;;2.20;64.20;;;;;;5108050;28;20032;-67
2022/12/14 00:08:56;;;;;;;18.80;10.07;;;2.20;64.00;;;;;;5109060;28;20051;-67
2022/12/14 00:11:23;;;;;;;19.93;10.60;;;2.10;64.00;;;;;;5101801;28;20028;-66
2022/12/14 00:13:57;;;;;;;18.00;9.63;;;2.10;64.00;;;;;;5107668;28;20036;-66
2022/12/14 00:16:26;;;;;;;19.13;10.17;;;2.10;64.00;;;;;;5109003;28;20031;-66
2022/12/14 00:18:55;;;;;;;17.43;10.03;;;2.10;63.90;;;;;;5104316;28;20050;-67
2022/12/14 00:21:22;;;;;;;20.00;10.80;;;2.10;63.80;;;;;;5108396;28;20035;-67
2022/12/14 00:23:49;;;;;;;19.07;11.60;;;2.10;63.90;;;;;;5108810;28;20032;-67
2022/12/14 00:26:17;;;;;;;20.73;10.13;;;2.10;63.90;;;;;;5109020;28;20091;-67
2022/12/14 00:28:45;;;;;;;17.93;9.60;;;2.10;63.90;;;;;;5097346;28;20073;-67
2022/12/14 00:31:11;;;;;;;17.37;9.90;;;2.10;63.90;;;;;;5112990;28;20023;-67
2022/12/14 00:33:37;;;;;;;18.03;9.50;;;2.10;63.90;;;;;;5108742;28;20447;-67
2022/12/14 00:36:05;;;;;;;19.93;10.63;;;2.10;63.90;;;;;;5109228;28;20440;-67
2022/12/14 00:38:30;;;;;;;16.20;8.50;;;2.10;63.90;;;;;;5098641;28;20050;-66
2022/12/14 00:40:56;;;;;;;19.60;10.07;;;2.10;63.80;;;;;;5111147;28;20447;-66
2022/12/14 00:43:23;;;;;;;16.90;10.03;;;2.10;63.80;;;;;;5099996;28;20031;-66
2022/12/14 00:45:49;;;;;;;17.77;9.77;;;2.00;63.80;;;;;;5105358;28;20092;-66
2022/12/14 00:48:17;;;;;;;18.47;10.17;;;2.10;63.80;;;;;;5101598;28;20442;-66
2022/12/14 00:50:45;;;;;;;20.43;9.73;;;2.10;63.70;;;;;;5104010;28;20078;-66
2022/12/14 00:53:10;;;;;;;16.10;9.13;;;2.10;64.40;;;;;;5108354;28;20413;-67
2022/12/14 00:55:38;;;;;;;20.80;10.17;;;2.10;63.60;;;;;;5110823;28;20115;-66
2022/12/14 00:58:04;;;;;;;19.37;9.97;;;2.10;63.60;;;;;;5110259;28;20032;-66
2022/12/14 01:00:29;;;;;;;19.57;10.13;;;2.10;63.60;;;;;;5107596;28;20433;-66
2022/12/14 01:02:55;;;;;;;19.33;10.20;;;2.00;63.50;;;;;;5108035;27;20020;-66
2022/12/14 01:05:21;;;;;;;18.90;9.77;;;2.00;63.60;;;;;;5105985;28;20512;-69
2022/12/14 01:07:46;;;;;;;19.53;9.97;;;2.00;63.60;;;;;;5108034;28;20459;-66
2022/12/14 01:10:12;;;;;;;19.27;10.93;;;2.00;63.60;;;;;;5115749;28;20059;-67
2022/12/14 01:12:37;;;;;;;16.67;9.23;;;2.00;63.60;;;;;;5112805;28;20030;-67
2022/12/14 01:15:04;;;;;;;16.73;9.83;;;1.90;63.60;;;;;;5119317;27;20019;-67
2022/12/14 01:17:29;;;;;;;19.17;10.37;;;2.00;63.70;;;;;;5121935;27;20112;-67
2022/12/14 01:19:55;;;;;;;19.27;10.77;;;2.00;63.70;;;;;;5110665;27;20107;-67
2022/12/14 01:22:21;;;;;;;19.20;8.77;;;2.00;63.70;;;;;;5115462;27;20032;-67
2022/12/14 01:24:46;;;;;;;19.27;10.83;;;2.00;63.60;;;;;;5114222;28;20069;-67
2022/12/14 01:27:12;;;;;;;19.97;9.97;;;2.00;63.60;;;;;;5117207;28;20020;-66
2022/12/14 01:29:38;;;;;;;16.87;8.93;;;2.00;63.50;;;;;;5114357;28;20061;-67
2022/12/14 01:32:04;;;;;;;18.77;9.93;;;2.00;63.40;;;;;;5107379;28;20471;-67
2022/12/14 01:34:30;;;;;;;17.07;9.03;;;2.00;63.40;;;;;;5111147;28;20035;-67
2022/12/14 01:36:56;;;;;;;17.30;9.80;;;2.00;63.40;;;;;;5096837;28;20026;-68
2022/12/14 01:39:21;;;;;;;19.27;9.53;;;2.00;63.40;;;;;;5110927;28;20038;-66
2022/12/14 01:41:51;;;;;;;18.07;9.13;;;2.00;63.30;;;;;;5116578;28;20031;-66
2022/12/14 01:44:17;;;;;;;17.33;9.43;;;2.00;63.30;;;;;;5114743;28;20015;-67
2022/12/14 01:47:07;;;;;;;17.87;9.10;;;1.90;63.20;;;;;;5112226;28;20413;-67
2022/12/14 01:49:49;;;;;;;15.80;9.13;;;2.00;63.20;;;;;;5108453;28;20034;-66
2022/12/14 01:52:50;;;;;;;15.23;9.70;;;1.90;63.10;;;;;;5106457;28;20036;-67
2022/12/14 01:55:27;;;;;;;17.10;9.53;;;2.00;63.20;;;;;;5107657;28;20055;-67
2022/12/14 01:58:09;;;;;;;17.30;9.37;;;1.90;63.10;;;;;;5103355;28;20031;-67
2022/12/14 02:00:35;;;;;;;15.27;8.73;;;1.90;63.00;;;;;;5113646;28;20104;-67
2022/12/14 02:03:19;;;;;;;17.43;9.47;;;1.90;63.10;;;;;;5117536;27;20042;-66
2022/12/14 02:05:53;;;;;;;17.60;9.27;;;1.90;63.00;;;;;;5107820;28;20016;-67
2022/12/14 02:08:21;;;;;;;16.03;8.10;;;1.90;62.90;;;;;;5109974;28;20023;-65
2022/12/14 02:10:48;;;;;;;19.30;9.23;;;1.90;62.80;;;;;;5110040;28;20047;-65
2022/12/14 02:13:25;;;;;;;14.80;8.37;;;1.90;62.80;;;;;;5110535;28;20161;-66
2022/12/14 02:15:51;;;;;;;15.80;8.30;;;1.90;62.80;;;;;;5109950;28;20028;-66
2022/12/14 02:18:20;;;;;;;17.30;8.50;;;1.90;62.70;;;;;;5095029;28;20377;-66
2022/12/14 02:21:35;;;;;;;18.80;8.70;;;1.90;62.70;;;;;;5106658;27;20034;-66
2022/12/14 02:24:19;;;;;;;14.97;8.63;;;1.90;62.50;;;;;;5095815;28;20032;-66
2022/12/14 02:27:08;;;;;;;14.93;8.10;;;1.90;62.70;;;;;;5094929;28;20051;-65
2022/12/14 02:29:58;;;;;;;16.80;8.30;;;1.80;63.10;;;;;;5096228;28;20035;-66
2022/12/14 02:32:35;;;;;;;13.83;8.00;;;1.80;62.50;;;;;;5109286;28;20024;-66
2022/12/14 02:35:38;;;;;;;14.57;7.63;;;1.80;62.50;;;;;;5112046;28;20038;-66
2022/12/14 02:38:07;;;;;;;14.83;7.63;;;1.80;62.40;;;;;;5097722;28;20116;-66
2022/12/14 02:40:57;;;;;;;15.03;8.10;;;1.80;62.30;;;;;;5101823;28;20024;-66
2022/12/14 02:43:23;;;;;;;17.37;8.17;;;1.80;62.30;;;;;;5108850;28;20036;-66
2022/12/14 02:46:29;;;;;;;15.90;8.37;;;1.80;62.30;;;;;;5113514;28;20355;-66
2022/12/14 02:49:09;;;;;;;15.10;6.93;;;1.80;62.20;;;;;;5096911;28;20024;-65
2022/12/14 02:52:01;;;;;;;13.83;7.40;;;1.80;62.20;;;;;;5105471;28;20035;-65
2022/12/14 02:54:52;;;;;;;13.68;7.72;;;1.80;62.20;;;;;;5103920;28;20036;-66
2022/12/14 02:57:28;;;;;;;15.67;8.13;;;1.80;62.20;;;;;;5106627;28;20039;-65
2022/12/14 02:59:59;;;;;;;18.43;9.50;;;1.80;62.20;;;;;;5104381;28;20071;-66
2022/12/14 03:02:26;;;;;;;15.67;8.03;;;1.70;62.10;;;;;;5107825;28;20028;-66
2022/12/14 03:04:52;;;;;;;15.23;7.90;;;1.70;62.10;;;;;;5114641;27;20351;-66
2022/12/14 03:07:33;;;;;;;14.60;8.13;;;1.70;62.10;;;;;;5105718;28;20020;-66
2022/12/14 03:10:19;;;;;;;15.67;8.10;;;1.70;62.00;;;;;;5107779;28;20080;-66
2022/12/14 03:12:52;;;;;;;16.27;7.40;;;1.70;61.90;;;;;;5107935;28;20295;-66
2022/12/14 03:15:20;;;;;;;16.30;8.57;;;1.70;61.90;;;;;;5114221;28;20088;-66
2022/12/14 03:17:50;;;;;;;14.77;7.37;;;1.70;61.90;;;;;;5101773;28;20044;-66
2022/12/14 03:20:22;;;;;;;15.20;8.07;;;1.70;61.80;;;;;;5100626;28;20051;-66
2022/12/14 03:23:03;;;;;;;13.80;7.30;;;1.70;61.80;;;;;;5108203;28;20024;-66
2022/12/14 03:25:45;;;;;;;16.42;8.82;;;1.70;61.80;;;;;;5099147;28;20032;-66
2022/12/14 03:28:21;;;;;;;17.10;8.32;;;1.70;61.70;;;;;;5103375;28;20111;-66
2022/12/14 03:31:03;;;;;;;14.87;7.87;;;1.70;61.80;;;;;;5100382;28;20370;-65
2022/12/14 03:33:30;;;;;;;15.23;8.23;;;1.70;61.70;;;;;;5114804;27;20064;-66
2022/12/14 03:36:09;;;;;;;16.33;8.10;;;1.70;61.70;;;;;;5116637;27;20488;-66
2022/12/14 03:38:43;;;;;;;16.47;8.17;;;1.60;61.50;;;;;;5101744;28;20040;-66
2022/12/14 03:41:14;;;;;;;15.70;7.43;;;1.60;61.50;;;;;;5102718;28;20020;-67
2022/12/14 03:43:52;;;;;;;14.90;8.07;;;1.60;61.50;;;;;;5100296;28;20024;-66
2022/12/14 03:46:38;;;;;;;15.10;7.83;;;1.60;61.50;;;;;;5094392;28;20494;-66
2022/12/14 03:49:46;;;;;;;15.00;7.83;;;1.60;61.40;;;;;;5110523;28;20297;-66
2022/12/14 03:52:38;;;;;;;14.70;7.83;;;1.60;61.30;;;;;;5050146;28;20067;-67
2022/12/14 03:55:26;;;;;;;15.10;7.97;;;1.60;61.30;;;;;;5052849;28;20388;-66
2022/12/14 03:58:28;;;;;;;15.80;7.80;;;1.60;61.30;;;;;;5051512;28;20314;-66
2022/12/14 04:01:12;;;;;;;17.52;7.88;;;1.60;61.30;;;;;;5052174;28;20033;-66
2022/12/14 04:03:44;;;;;;;15.27;7.50;;;1.60;61.30;;;;;;5048106;28;20048;-66
2022/12/14 04:06:26;;;;;;;14.43;7.15;;;1.60;61.20;;;;;;5041790;28;20033;-66
2022/12/14 04:09:24;;;;;;;13.17;7.00;;;1.60;61.20;;;;;;5049553;28;20052;-66
2022/12/14 04:20:52;;;;;;;14.10;6.70;;;1.50;61.10;;;;;;5047698;28;20061;-66
2022/12/14 04:26:21;;;;;;;17.80;8.37;;;1.50;61.10;;;;;;5052081;28;20037;-66
2022/12/14 04:31:42;;;;;;;15.67;7.90;;;1.40;61.00;;;;;;5111383;28;20032;-66
2022/12/14 04:34:11;;;;;;;14.37;7.10;;;1.40;61.00;;;;;;5102712;28;20512;-66
2022/12/14 04:36:50;;;;;;;14.67;7.67;;;1.50;61.00;;;;;;5108828;28;20028;-66
2022/12/14 04:39:40;;;;;;;12.70;6.33;;;1.50;61.00;;;;;;5113977;28;20447;-66
2022/12/14 04:42:07;;;;;;;12.70;6.50;;;1.40;60.80;;;;;;5115822;28;20094;-66
2022/12/14 04:44:40;;;;;;;14.40;7.73;;;1.50;60.90;;;;;;5117850;27;20028;-66
2022/12/14 04:47:10;;;;;;;12.30;5.80;;;1.40;60.80;;;;;;5116452;28;20065;-66
2022/12/14 04:49:38;;;;;;;14.10;7.03;;;1.50;60.90;;;;;;5113574;28;20446;-67
2022/12/14 04:52:11;;;;;;;14.77;7.13;;;1.40;60.80;;;;;;5116474;28;20074;-66
2022/12/14 04:54:51;;;;;;;13.90;7.10;;;1.40;60.90;;;;;;5108981;28;20362;-66
2022/12/14 04:57:23;;;;;;;13.67;6.53;;;1.40;60.80;;;;;;5081067;28;20031;-66
2022/12/14 04:59:49;;;;;;;13.70;6.23;;;1.40;60.80;;;;;;5104013;28;20418;-66
2022/12/14 05:02:21;;;;;;;13.37;6.70;;;1.40;60.80;;;;;;5102594;28;20035;-66
2022/12/14 05:05:24;;;;;;;12.77;6.63;;;1.40;60.70;;;;;;5099570;28;20332;-66
2022/12/14 05:07:56;;;;;;;13.43;6.87;;;1.40;60.70;;;;;;5112191;28;20442;-66
2022/12/14 05:10:29;;;;;;;14.70;7.63;;;1.40;60.70;;;;;;5099723;28;20028;-66
2022/12/14 05:13:04;;;;;;;13.83;6.80;;;1.40;60.60;;;;;;5100033;28;20031;-66
2022/12/14 05:15:42;;;;;;;13.93;6.73;;;1.40;60.70;;;;;;5101244;28;20051;-66
2022/12/14 05:18:09;;;;;;;15.30;7.37;;;1.40;60.60;;;;;;5099441;28;20087;-66
2022/12/14 05:20:34;;;;;;;13.73;6.00;;;1.40;60.70;;;;;;5105961;28;20024;-66
2022/12/14 05:23:00;;;;;;;15.07;7.93;;;1.40;60.60;;;;;;5097913;28;20353;-66
2022/12/14 05:25:26;;;;;;;10.33;5.90;;;1.40;60.60;;;;;;5100629;28;20031;-66
2022/12/14 05:27:52;;;;;;;15.33;6.70;;;1.30;60.40;;;;;;5098300;28;20020;-66
2022/12/14 05:30:17;;;;;;;12.20;6.13;;;1.40;60.50;;;;;;5106525;28;20043;-66
2022/12/14 05:32:43;;;;;;;13.23;6.77;;;1.30;60.40;;;;;;5109857;28;20359;-66
2022/12/14 05:35:12;;;;;;;13.23;6.83;;;1.30;60.30;;;;;;5112112;28;20019;-66
2022/12/14 05:37:37;;;;;;;13.70;6.40;;;1.30;60.30;;;;;;5116138;28;20049;-66
2022/12/14 05:40:03;;;;;;;14.90;6.67;;;1.30;60.30;;;;;;5105151;28;20035;-67
2022/12/14 05:42:30;;;;;;;13.17;6.97;;;1.30;60.90;;;;;;5107520;28;20032;-66
2022/12/14 05:44:55;;;;;;;14.30;6.77;;;1.30;60.20;;;;;;5109673;27;20441;-66
2022/12/14 05:47:21;;;;;;;13.63;6.57;;;1.30;60.20;;;;;;5114518;28;20019;-66
2022/12/14 05:49:47;;;;;;;13.40;5.97;;;1.40;60.30;;;;;;5114881;27;20050;-66
2022/12/14 05:52:12;;;;;;;12.63;6.13;;;1.30;60.10;;;;;;5100306;28;20463;-66
2022/12/14 05:54:38;;;;;;;15.17;6.57;;;1.30;60.00;;;;;;5113932;28;20368;-68
2022/12/14 05:57:05;;;;;;;13.73;6.00;;;1.30;60.10;;;;;;5107425;28;20077;-66
2022/12/14 05:59:32;;;;;;;12.47;6.27;;;1.30;60.00;;;;;;5092961;28;20360;-65
2022/12/14 06:01:58;;;;;;;12.00;6.20;;;1.30;60.00;;;;;;5114575;27;20038;-66
2022/12/14 06:04:24;;;;;;;12.50;6.00;;;1.30;60.10;;;;;;5103853;28;20024;-66
2022/12/14 06:06:50;;;;;;;12.40;5.97;;;1.30;60.10;;;;;;5094995;28;20024;-66
2022/12/14 06:09:17;;;;;;;13.20;5.77;;;1.30;60.00;;;;;;5096306;28;20076;-66
2022/12/14 06:11:44;;;;;;;12.53;5.60;;;1.30;60.00;;;;;;5098814;28;20032;-66
2022/12/14 06:14:10;;;;;;;13.73;6.23;;;1.30;60.00;;;;;;5099101;28;20035;-66
2022/12/14 06:16:40;;;;;;;11.47;5.70;;;1.30;60.00;;;;;;5124889;27;20092;-66
2022/12/14 06:19:06;;;;;;;12.57;6.10;;;1.30;60.00;;;;;;5100846;27;20036;-66
2022/12/14 06:21:34;;;;;;;12.47;6.10;;;1.30;59.90;;;;;;5096543;28;20061;-66
2022/12/14 06:24:01;;;;;;;14.70;6.70;;;1.30;59.90;;;;;;5095632;28;20040;-66
2022/12/14 06:26:28;;;;;;;11.63;5.20;;;1.20;59.80;;;;;;5107763;28;20066;-66
2022/12/14 06:28:55;;;;;;;12.47;6.03;;;1.20;59.80;;;;;;5097374;28;20039;-66
2022/12/14 06:31:23;;;;;;;11.37;5.63;;;1.20;59.70;;;;;;5109657;28;20153;-66
2022/12/14 06:33:49;;;;;;;13.43;6.27;;;1.20;59.70;;;;;;5096307;28;20054;-66
2022/12/14 06:36:23;;;;;;;11.13;5.23;;;1.20;59.70;;;;;;5104125;28;20025;-66
2022/12/14 06:38:53;;;;;;;10.63;5.33;;;1.20;60.30;;;;;;5100006;28;20109;-66
2022/12/14 06:41:20;;;;;;;11.60;6.23;;;1.20;59.70;;;;;;5112105;28;20018;-67
2022/12/14 06:43:46;;;;;;;11.60;5.33;;;1.20;59.70;;;;;;5112389;28;20019;-65
2022/12/14 06:46:14;;;;;;;11.90;5.93;;;1.20;59.70;;;;;;5109125;28;20455;-66
2022/12/14 06:48:39;;;;;;;12.37;6.13;;;1.20;59.70;;;;;;5105581;28;20111;-65
2022/12/14 06:51:06;;;;;;;12.47;5.63;;;1.20;59.60;;;;;;5108642;28;20165;-65
2022/12/14 06:53:33;;;;;;;12.13;5.77;;;1.10;59.50;;;;;;5111518;28;20080;-65
2022/12/14 06:56:13;;;;;;;14.03;5.70;;;1.20;59.60;;;;;;5105071;28;20088;-67
2022/12/14 06:58:39;;;;;;;13.03;5.80;;;1.10;59.50;;;;;;5106753;28;20032;-66
2022/12/14 07:01:12;;;;;;;13.63;6.67;;;1.10;59.50;;;;;;5097662;28;20027;-66
2022/12/14 07:03:38;;;;;;;14.30;6.57;;;1.10;59.40;;;;;;5110444;27;20024;-66
2022/12/14 07:06:05;;;;;;;11.77;5.83;;;1.10;59.50;;;;;;5100080;27;20199;-66
2022/12/14 07:08:33;;;;;;;12.93;6.30;;;1.10;59.40;;;;;;5107817;28;20023;-66
2022/12/14 07:11:04;;;;;;;13.00;6.40;;;1.10;59.40;;;;;;5094301;28;20032;-66
2022/12/14 07:13:30;;;;;;;14.05;6.22;;;1.10;59.40;;;;;;5108583;28;20399;-67
2022/12/14 07:15:57;;;;;;;13.03;5.93;;;1.10;59.40;;;;;;5096089;28;20053;-66
2022/12/14 07:18:23;;;;;;;11.87;6.10;;;1.10;59.40;;;;;;5111071;27;20416;-66
2022/12/14 07:21:08;;;;;;;14.57;7.03;;;1.10;59.40;;;;;;5108165;28;20024;-65
2022/12/14 07:23:36;;;;;;;12.60;6.20;;;1.10;59.40;;;;;;5105153;28;20308;-66
2022/12/14 07:26:09;;;;;;;13.30;5.70;;;1.00;59.40;;;;;;5096144;28;20035;-67
2022/12/14 07:28:39;;;;;;;12.37;6.17;;;1.00;59.40;;;;;;5100383;28;20032;-66
2022/12/14 07:31:08;;;;;;;13.50;6.60;;;1.00;59.40;;;;;;5104683;28;20047;-67
2022/12/14 07:33:34;;;;;;;13.23;5.63;;;1.00;59.40;;;;;;5108623;28;20036;-67
2022/12/14 07:36:04;;;;;;;13.67;5.97;;;1.00;59.40;;;;;;5110192;27;20033;-68
2022/12/14 07:38:30;;;;;;;12.30;5.87;;;1.00;59.40;;;;;;5090115;28;20035;-66
2022/12/14 07:41:04;;;;;;;12.50;6.10;;;1.00;59.40;;;;;;5100265;28;20035;-66
2022/12/14 07:43:30;;;;;;;12.43;5.87;;;0.90;59.40;;;;;;5104771;28;20419;-66
2022/12/14 07:46:04;;;;;;;12.97;5.93;;;0.90;59.40;;;;;;5107801;28;20107;-66
2022/12/14 07:48:30;;;;;;;13.63;6.23;;;0.90;59.40;;;;;;5103796;28;20436;-66
2022/12/14 07:51:06;;;;;;;13.87;7.13;;;0.90;59.50;;;;;;5099369;28;20032;-67
2022/12/14 07:53:33;;;;;;;13.20;7.33;;;0.90;59.50;;;;;;5100869;28;20119;-67
2022/12/14 07:56:01;;;;;;;14.57;6.93;;;0.90;59.50;;;;;;5105459;28;20030;-67
2022/12/14 07:58:27;;;;;;;13.17;6.70;;;0.90;59.50;;;;;;5096233;28;20050;-67
2022/12/14 08:00:52;;;;;;;15.63;7.30;;;0.90;59.60;;;;;;5094154;28;20375;-67
2022/12/14 08:03:18;;;;;;;12.97;5.97;;;0.90;59.60;;;;;;5100406;28;20426;-67
2022/12/14 08:05:43;;;;;;;12.23;6.43;;;0.90;59.60;;;;;;5095996;28;20095;-68
2022/12/14 08:08:09;;;;;;;14.37;6.87;;;0.90;59.60;;;;;;5095548;28;20024;-67
2022/12/14 08:10:35;;;;;;;14.13;6.73;;;0.90;59.70;;;;;;5094059;28;20318;-68
2022/12/14 08:13:01;;;;;;;13.17;6.17;;;0.80;59.70;;;;;;5099831;28;20031;-68
2022/12/14 08:15:26;;;;;;;15.43;7.13;;;0.80;59.70;;;;;;5098757;28;20038;-67
2022/12/14 08:17:52;;;;;;;14.87;7.57;;;0.80;59.80;;;;;;5103489;28;20506;-68
2022/12/14 08:20:18;;;;;;;14.60;7.27;;;0.80;59.80;;;;;;5107084;28;20463;-69
2022/12/14 08:22:44;;;;;;;14.73;7.07;;;0.80;59.90;;;;;;5106528;28;20063;-67
2022/12/14 08:25:09;;;;;;;17.37;8.63;;;0.80;59.90;;;;;;5111523;28;20456;-67
2022/12/14 08:27:35;;;;;;;14.47;7.47;;;0.80;60.00;;;;;;5108766;28;20020;-67
2022/12/14 08:30:01;;;;;;;14.30;6.57;;;0.80;60.00;;;;;;5109123;28;20414;-67
2022/12/14 08:32:27;;;;;;;14.40;7.30;;;0.80;59.90;;;;;;5106530;28;20348;-67
2022/12/14 08:34:52;;;;;;;12.80;6.33;;;0.80;60.00;;;;;;5104431;28;20020;-67
2022/12/14 08:37:18;;;;;;;15.07;7.97;;;0.80;60.00;;;;;;5092685;28;20480;-68
2022/12/14 08:39:43;;;;;;;13.37;6.77;;;0.80;60.00;;;;;;5098890;28;20024;-68
2022/12/14 08:42:10;;;;;;;15.97;7.63;;;0.70;59.90;;;;;;5102399;28;20081;-69
2022/12/14 08:44:35;;;;;;;14.03;7.40;;;0.70;59.90;;;;;;5110170;28;20012;-68
2022/12/14 08:47:01;;;;;;;15.83;7.17;;;0.70;59.90;;;;;;5109212;28;20015;-68
2022/12/14 08:49:27;;;;;;;14.17;7.27;;;0.70;59.90;;;;;;5102103;28;20455;-67
2022/12/14 08:51:52;;;;;;;17.00;7.60;;;0.70;59.90;;;;;;5110125;28;20027;-66
2022/12/14 08:54:18;;;;;;;14.57;7.00;;;0.80;59.90;;;;;;5101137;28;20028;-67
2022/12/14 08:56:44;;;;;;;14.93;7.47;;;0.80;60.00;;;;;;5107875;28;20077;-66
2022/12/14 08:59:10;;;;;;;15.67;8.27;;;0.80;60.00;;;;;;5112832;28;20046;-67
2022/12/14 09:01:35;;;;;;;16.90;8.10;;;0.90;60.00;;;;;;5097648;28;20111;-67
2022/12/14 09:04:03;;;;;;;14.43;7.53;;;1.00;59.80;;;;;;5104188;28;20450;-66
2022/12/14 09:06:29;;;;;;;13.83;7.33;;;1.10;59.60;;;;;;5105927;28;20023;-66
2022/12/14 09:08:56;;;;;;;14.90;8.03;;;1.20;59.50;;;;;;5111827;28;20063;-68
2022/12/14 09:11:22;;;;;;;19.10;8.67;;;1.30;59.40;;;;;;5101540;28;20024;-66
2022/12/14 09:13:51;;;;;;;17.97;9.07;;;1.40;59.20;;;;;;5105101;28;20448;-67
2022/12/14 09:16:19;;;;;;;16.57;7.60;;;1.50;59.00;;;;;;5108703;28;20032;-66
2022/12/14 09:18:45;;;;;;;14.43;8.00;;;1.60;59.00;;;;;;5114798;28;20077;-67
2022/12/14 09:21:12;;;;;;;16.50;8.37;;;1.70;58.90;;;;;;5112356;28;20070;-66
2022/12/14 09:23:38;;;;;;;15.33;7.87;;;1.70;58.70;;;;;;5115587;27;20452;-67
2022/12/14 09:26:05;;;;;;;18.43;8.50;;;1.70;58.70;;;;;;5112007;28;20038;-67
2022/12/14 09:28:33;;;;;;;20.53;7.97;;;1.80;58.70;;;;;;5106110;28;20028;-67
2022/12/14 09:31:00;;;;;;;15.50;7.70;;;1.80;58.70;;;;;;5112979;28;20024;-66
2022/12/14 09:33:27;;;;;;;15.13;7.70;;;1.80;58.70;;;;;;5112631;27;20027;-65
2022/12/14 09:36:02;;;;;;;17.23;8.10;;;1.80;58.60;;;;;;5098843;28;20019;-66
2022/12/14 09:38:30;;;;;;;14.97;8.00;;;1.80;58.70;;;;;;5097424;28;20032;-66
2022/12/14 09:40:59;;;;;;;17.50;7.90;;;1.80;58.70;;;;;;5112155;28;20024;-66
2022/12/14 09:43:41;;;;;;;18.93;8.80;;;1.80;58.70;;;;;;5110398;28;20036;-66
2022/12/14 09:46:18;;;;;;;;;;;1.80;58.60;;;;;;5096257;28;20028;-66
2022/12/14 09:48:43;;;;;;;15.93;8.30;;;1.80;58.60;;;;;;5099182;28;20264;-66
2022/12/14 09:51:18;;;;;;;15.10;7.60;;;1.80;58.60;;;;;;5115913;28;20015;-65
2022/12/14 09:53:49;;;;;;;15.13;8.30;;;1.80;58.50;;;;;;5112528;28;20379;-66
2022/12/14 09:56:18;;;;;;;16.70;7.57;;;1.90;58.50;;;;;;5113048;28;20023;-66
2022/12/14 09:58:58;;;;;;;14.20;7.33;;;1.90;58.40;;;;;;5112441;28;20028;-66
2022/12/14 10:01:46;;;;;;;14.60;7.70;;;2.00;58.20;;;;;;5101648;28;20028;-66
2022/12/14 10:04:42;;;;;;;15.17;7.77;;;2.20;58.00;;;;;;5096585;28;20040;-66
2022/12/14 10:07:13;;;;;;;16.23;7.73;;;2.40;57.70;;;;;;5097150;28;20352;-66
2022/12/14 10:09:57;;;;;;;13.98;6.82;;;2.70;57.30;;;;;;5096614;28;20039;-66
2022/12/14 10:12:47;;;;;;;14.87;7.83;;;3.00;56.90;;;;;;5099011;28;20111;-66
2022/12/14 10:15:45;;;;;;;16.37;8.00;;;3.30;56.40;;;;;;5096751;28;20135;-66
2022/12/14 10:19:04;;;;;;;13.13;6.87;;;3.60;56.10;;;;;;5043905;28;20068;-66
2022/12/14 10:21:46;;;;;;;14.27;7.07;;;3.80;55.70;;;;;;4994590;28;20039;-66
2022/12/14 10:24:15;;;;;;;;;;;3.90;55.40;;;;;;4995270;28;20473;-66
2022/12/14 10:26:46;;;;;;;14.20;6.80;;;4.10;55.50;;;;;;4994058;28;19910;-66
2022/12/14 10:29:29;;;;;;;15.40;8.35;;;4.20;55.20;;;;;;4997885;28;20137;-66
2022/12/14 10:32:19;;;;;;;15.63;7.40;;;4.30;54.90;;;;;;4994108;28;20038;-64
2022/12/14 10:34:45;;;;;;;17.17;8.07;;;4.50;54.70;;;;;;4993724;28;20038;-64
2022/12/14 10:37:22;;;;;;;15.57;7.70;;;4.50;54.70;;;;;;4989934;28;20457;-64
2022/12/14 10:40:08;;;;;;;14.57;7.47;;;4.60;54.40;;;;;;4993684;28;20034;-65
2022/12/14 10:42:41;;;;;;;14.20;7.27;;;4.70;54.30;;;;;;4993332;28;20058;-65
2022/12/14 10:45:28;;;;;;;14.93;7.40;;;4.80;54.10;;;;;;4991901;28;20399;-63
2022/12/14 10:48:04;;;;;;;14.07;6.80;;;4.90;53.90;;;;;;4993257;28;20034;-63
2022/12/14 10:50:48;;;;;;;14.70;7.73;;;4.90;53.80;;;;;;4993689;28;20081;-63
2022/12/14 10:53:21;;;;;;;17.13;8.40;;;4.90;53.60;;;;;;4993318;28;20034;-64
2022/12/14 10:55:48;;;;;;;18.13;8.23;;;5.00;53.70;;;;;;5070369;28;20077;-63
2022/12/14 10:58:13;;;;;;;14.40;7.57;;;5.00;53.60;;;;;;5109459;27;20115;-66
2022/12/14 11:00:39;;;;;;;16.83;7.40;;;5.00;53.50;;;;;;5111845;28;20110;-66
2022/12/14 11:03:14;;;;;;;15.17;7.40;;;5.00;53.30;;;;;;5109458;28;20027;-65
2022/12/14 11:06:11;;;;;;;14.80;7.13;;;5.00;53.30;;;;;;5105972;28;20026;-64
2022/12/14 11:08:39;;;;;;;14.93;6.70;;;5.10;53.20;;;;;;5107818;28;20027;-64
2022/12/14 11:11:17;;;;;;;15.77;8.50;;;5.00;53.20;;;;;;5128848;27;20019;-63
2022/12/14 11:13:51;;;;;;;14.63;7.57;;;5.00;53.10;;;;;;5111679;28;20118;-64
2022/12/14 11:16:34;;;;;;;16.43;7.37;;;4.90;53.10;;;;;;5111327;28;20031;-63
2022/12/14 11:19:02;;;;;;;17.00;8.43;;;4.80;53.20;;;;;;5109648;28;20116;-64
2022/12/14 11:21:38;;;;;;;15.83;7.53;;;4.70;53.30;;;;;;5110061;28;20126;-64
2022/12/14 11:24:05;;;;;;;13.80;7.60;;;4.70;53.30;;;;;;5106800;28;20355;-64
2022/12/14 11:26:34;;;;;;;14.30;7.83;;;4.60;53.40;;;;;;5102688;28;20074;-65
2022/12/14 11:29:01;;;;;;;15.23;7.83;;;4.60;53.40;;;;;;5110346;27;20024;-66
2022/12/14 11:31:37;;;;;;;14.50;8.00;;;4.50;53.50;;;;;;5104627;28;20103;-65
2022/12/14 11:34:17;;;;;;;13.27;7.07;;;4.40;53.50;;;;;;5098821;28;20060;-66
2022/12/14 11:36:43;;;;;;;16.97;8.57;;;4.30;53.60;;;;;;5112393;28;20023;-66
2022/12/14 11:39:11;;;;;;;14.43;7.60;;;4.20;53.70;;;;;;5105601;28;20039;-66
2022/12/14 11:41:41;;;;;;;13.57;7.33;;;4.20;53.90;;;;;;5107256;27;20027;-66
2022/12/14 11:44:15;;;;;;;15.53;8.37;;;4.10;54.00;;;;;;5110173;27;20364;-66
2022/12/14 11:46:56;;;;;;;17.57;8.63;;;4.10;54.10;;;;;;5106707;28;20032;-66
2022/12/14 11:49:37;;;;;;;17.37;7.93;;;4.00;54.10;;;;;;5113832;28;20100;-66
2022/12/14 11:52:14;;;;;;;16.03;8.83;;;3.90;54.20;;;;;;5114654;28;20030;-66
2022/12/14 11:54:42;;;;;;;23.10;9.77;;;3.90;54.30;;;;;;5110284;28;20447;-66
2022/12/14 11:57:11;;;;;;;17.60;8.10;;;3.80;54.30;;;;;;5113791;28;20031;-66
2022/12/14 11:59:46;;;;;;;16.57;8.57;;;3.80;55.10;;;;;;5116889;27;20019;-66
2022/12/14 12:02:20;;;;;;;16.03;8.93;;;3.70;54.50;;;;;;5114088;28;20032;-66
2022/12/14 12:04:53;;;;;;;16.87;9.10;;;3.70;54.60;;;;;;5114123;28;20101;-66
2022/12/14 12:07:35;;;;;;;16.07;8.80;;;3.70;54.70;;;;;;5111728;28;20364;-66
2022/12/14 12:10:33;;;;;;;17.23;8.82;;;3.60;54.70;;;;;;5108382;28;20019;-66
2022/12/14 12:13:00;;;;;;;16.37;7.77;;;3.60;54.90;;;;;;5109455;28;20497;-66
2022/12/14 12:15:38;;;;;;;14.87;7.77;;;3.60;55.00;;;;;;5107061;28;20035;-66
2022/12/14 12:18:16;;;;;;;13.87;7.50;;;3.60;55.00;;;;;;5103469;28;20170;-65
2022/12/14 12:21:16;;;;;;;15.27;8.30;;;3.60;54.90;;;;;;5093690;28;20040;-65
2022/12/14 12:24:17;;;;;;;18.03;8.10;;;3.60;54.70;;;;;;5105479;28;20048;-66
2022/12/14 12:27:01;;;;;;;14.13;6.70;;;3.60;54.80;;;;;;5068857;28;20033;-66
2022/12/14 12:29:45;;;;;;;13.37;6.70;;;3.60;54.70;;;;;;5068261;28;20032;-66
2022/12/14 12:32:17;;;;;;;16.10;7.67;;;3.60;54.70;;;;;;5071431;28;20059;-65
2022/12/14 12:34:57;;;;;;;14.80;7.40;;;3.70;54.80;;;;;;5069486;28;20453;-65
2022/12/14 12:37:41;;;;;;;15.63;7.23;;;3.70;54.80;;;;;;5049009;28;20033;-65
2022/12/14 12:40:26;;;;;;;14.33;7.30;;;3.70;54.90;;;;;;5048270;28;20506;-65
2022/12/14 12:42:56;;;;;;;14.37;6.53;;;3.70;55.00;;;;;;5072950;28;20388;-65
2022/12/14 12:45:34;;;;;;;13.83;7.00;;;3.70;55.10;;;;;;5065045;28;20060;-66
2022/12/14 12:48:18;;;;;;;13.37;6.80;;;3.70;55.20;;;;;;5069331;28;20033;-66
2022/12/14 12:50:50;;;;;;;14.80;7.23;;;3.70;55.20;;;;;;5049370;28;20397;-66
2022/12/14 12:53:20;;;;;;;;;;;3.70;55.20;;;;;;5074669;28;20047;-66
2022/12/14 12:56:00;;;;;;;10.90;5.60;;;3.70;55.90;;;;;;5074302;28;19927;-66
2022/12/14 12:58:31;;;;;;;11.70;5.93;;;3.70;56.00;;;;;;5069439;28;20120;-66
2022/12/14 13:01:17;;;;;;;12.43;5.85;;;3.70;55.40;;;;;;5098693;28;20051;-66
2022/12/14 13:03:46;;;;;;;13.87;6.70;;;3.70;55.40;;;;;;5110110;28;20103;-66
2022/12/14 13:06:16;;;;;;;11.87;6.10;;;3.70;55.50;;;;;;5114523;28;20030;-65
2022/12/14 13:08:44;;;;;;;15.13;7.13;;;3.70;55.50;;;;;;5115713;28;20120;-66
2022/12/14 13:11:23;;;;;;;14.17;6.80;;;3.70;55.40;;;;;;5118019;28;20024;-66
2022/12/14 13:14:23;;;;;;;12.07;5.90;;;3.70;55.30;;;;;;5112639;28;20031;-66
2022/12/14 13:16:51;;;;;;;11.40;5.60;;;3.70;55.30;;;;;;5091838;28;20086;-65
2022/12/14 13:19:52;;;;;;;14.27;5.83;;;3.70;55.40;;;;;;5113163;28;20040;-66
2022/12/14 13:22:28;;;;;;;11.80;5.28;;;3.70;55.30;;;;;;5070639;28;20400;-66
2022/12/14 13:24:56;;;;;;;11.70;5.23;;;3.60;55.20;;;;;;5059833;28;20048;-66
2022/12/14 13:27:40;;;;;;;10.73;5.17;;;3.70;55.20;;;;;;5036820;28;20028;-65
2022/12/14 13:30:43;;;;;;;11.07;5.50;;;3.70;55.10;;;;;;5075572;28;20043;-66
2022/12/14 13:33:41;;;;;;;10.17;5.13;;;3.60;55.10;;;;;;5057310;28;20051;-65